Time;durP1;ratioP1;P1;durP2;ratioP2;P2;SDS_P1;SDS_P2;PMS_P1;PMS_P2;Temp;Humidity;BMP_temperature;BMP_pressure;BME280_temperature;BME280_humidity;BME280_pressure;Samples;Min_cycle;Max_cycle;Signal;HPM_P1;HPM_P2
2023/01/03 00:01:28;;;;;;;11.50;6.50;;;;;;;;;;5093296;28;20012;-58
2023/01/03 00:03:55;;;;;;;12.32;6.68;;;;;;;;;;5091661;28;20020;-60
2023/01/03 00:06:32;;;;;;;11.82;5.95;;;;;;;;;;5091982;28;20024;-59
2023/01/03 00:08:58;;;;;;;12.10;7.03;;;;;;;;;;5092191;28;20492;-60
2023/01/03 00:14:11;;;;;;;24.55;11.82;;;;;;;;;;5093320;28;20039;-60
2023/01/03 00:16:37;;;;;;;28.45;13.10;;;;;;;;;;5093176;28;20043;-59
2023/01/03 00:19:09;;;;;;;32.22;14.20;;;;;;;;;;5092868;28;20019;-59
2023/01/03 00:21:34;;;;;;;29.67;14.95;;;;;;;;;;5091794;28;20020;-59
2023/01/03 00:24:00;;;;;;;28.27;8.23;;;;;;;;;;5092896;28;20111;-59
2023/01/03 00:26:26;;;;;;;35.70;15.07;;;;;;;;;;5091648;28;20023;-60
2023/01/03 00:28:51;;;;;;;36.83;13.60;;;;;;;;;;5092853;28;20362;-59
2023/01/03 00:31:17;;;;;;;31.73;15.18;;;;;;;;;;5091212;28;20020;-59
2023/01/03 00:33:42;;;;;;;33.42;16.17;;;;;;;;;;5091385;28;20482;-59
2023/01/03 00:36:08;;;;;;;31.63;15.05;;;;;;;;;;5090977;28;20396;-59
2023/01/03 00:38:34;;;;;;;31.58;13.57;;;;;;;;;;5092736;28;20384;-59
2023/01/03 00:41:07;;;;;;;29.80;14.98;;;;;;;;;;5091451;28;20336;-59
2023/01/03 00:43:33;;;;;;;29.15;14.82;;;;;;;;;;5092660;28;20043;-59
2023/01/03 00:45:59;;;;;;;24.48;12.52;;;;;;;;;;5091269;28;20377;-59
2023/01/03 00:48:24;;;;;;;27.10;13.30;;;;;;;;;;5092551;28;20016;-59
2023/01/03 00:50:50;;;;;;;26.77;12.70;;;;;;;;;;5091179;28;20028;-58
2023/01/03 00:53:15;;;;;;;28.25;13.15;;;;;;;;;;5092329;28;20868;-59
2023/01/03 00:55:41;;;;;;;20.33;9.85;;;;;;;;;;5092506;28;20028;-57
2023/01/03 00:58:06;;;;;;;24.00;12.13;;;;;;;;;;5092578;28;20008;-57
2023/01/03 01:00:32;;;;;;;23.35;10.93;;;;;;;;;;5091015;28;20016;-57
2023/01/03 01:02:57;;;;;;;23.83;12.20;;;;;;;;;;5092033;28;20020;-59
2023/01/03 01:05:22;;;;;;;20.63;11.52;;;;;;;;;;5092389;28;20044;-58
2023/01/03 01:07:48;;;;;;;19.55;8.48;;;;;;;;;;5091113;28;20054;-58
2023/01/03 01:10:13;;;;;;;16.58;8.88;;;;;;;;;;5091165;28;20020;-57
2023/01/03 01:12:39;;;;;;;16.55;8.20;;;;;;;;;;5092364;28;20426;-58
2023/01/03 01:15:05;;;;;;;20.67;9.77;;;;;;;;;;5090729;28;20043;-57
2023/01/03 01:17:30;;;;;;;20.02;10.35;;;;;;;;;;5090596;28;20024;-57
2023/01/03 01:19:56;;;;;;;19.23;8.52;;;;;;;;;;5091123;28;20024;-57
2023/01/03 01:22:21;;;;;;;14.25;8.50;;;;;;;;;;5092294;28;20020;-58
2023/01/03 01:24:47;;;;;;;15.02;8.50;;;;;;;;;;5090921;28;20024;-57
2023/01/03 01:27:12;;;;;;;10.75;6.78;;;;;;;;;;5092019;28;20024;-57
2023/01/03 01:29:38;;;;;;;14.82;7.68;;;;;;;;;;5092001;28;20012;-57
2023/01/03 01:32:04;;;;;;;11.40;7.10;;;;;;;;;;5092055;28;20039;-57
2023/01/03 01:34:30;;;;;;;14.20;6.95;;;;;;;;;;5090936;28;20417;-57
2023/01/03 01:36:55;;;;;;;11.85;7.15;;;;;;;;;;5090963;28;20052;-58
2023/01/03 01:39:22;;;;;;;11.40;5.95;;;;;;;;;;5090802;28;20020;-58
2023/01/03 01:44:38;;;;;;;10.85;5.38;;;;;;;;;;5092511;28;20043;-58
2023/01/03 01:47:03;;;;;;;11.13;5.15;;;;;;;;;;5092304;28;20518;-57
2023/01/03 01:49:29;;;;;;;11.70;5.15;;;;;;;;;;5094844;28;20182;-57
2023/01/03 01:51:54;;;;;;;10.93;5.70;;;;;;;;;;5095981;28;20012;-59
2023/01/03 01:54:20;;;;;;;17.63;5.50;;;;;;;;;;5094683;28;20020;-57
2023/01/03 01:56:47;;;;;;;10.57;5.13;;;;;;;;;;5095769;28;20036;-57
2023/01/03 01:59:13;;;;;;;14.23;5.65;;;;;;;;;;5096012;28;20396;-57
2023/01/03 02:01:40;;;;;;;8.30;3.95;;;;;;;;;;5095909;28;20020;-57
2023/01/03 02:04:11;;;;;;;8.23;3.90;;;;;;;;;;5094554;28;20109;-57
2023/01/03 02:06:38;;;;;;;9.23;4.30;;;;;;;;;;5095779;28;20047;-58
2023/01/03 02:09:03;;;;;;;7.45;3.67;;;;;;;;;;5095325;28;20020;-58
2023/01/03 02:11:37;;;;;;;7.72;3.72;;;;;;;;;;5095489;28;20028;-58
2023/01/03 02:14:09;;;;;;;10.67;4.00;;;;;;;;;;5095868;28;20030;-58
2023/01/03 02:16:44;;;;;;;6.55;3.00;;;;;;;;;;5094405;28;20404;-58
2023/01/03 02:19:23;;;;;;;8.30;3.78;;;;;;;;;;5095302;28;20495;-58
2023/01/03 02:22:07;;;;;;;10.40;4.00;;;;;;;;;;5095587;28;20051;-59
2023/01/03 02:24:43;;;;;;;6.18;2.78;;;;;;;;;;5095840;28;20016;-58
2023/01/03 02:27:11;;;;;;;8.00;3.15;;;;;;;;;;5094003;28;20035;-60
2023/01/03 02:29:36;;;;;;;6.82;3.63;;;;;;;;;;5093996;28;20493;-57
2023/01/03 02:32:06;;;;;;;4.32;2.58;;;;;;;;;;5093744;28;20111;-57
2023/01/03 02:34:58;;;;;;;9.45;3.60;;;;;;;;;;5093643;28;20016;-57
2023/01/03 02:37:38;;;;;;;6.10;2.88;;;;;;;;;;5089629;28;20027;-58
2023/01/03 02:40:12;;;;;;;9.00;3.25;;;;;;;;;;5093766;28;20468;-57
2023/01/03 02:42:57;;;;;;;8.20;2.30;;;;;;;;;;5095281;28;20031;-57
2023/01/03 02:45:22;;;;;;;5.07;2.47;;;;;;;;;;5095442;28;20064;-59
2023/01/03 02:48:00;;;;;;;7.28;2.17;;;;;;;;;;5094034;28;20024;-58
2023/01/03 02:50:28;;;;;;;3.67;1.98;;;;;;;;;;5093640;28;20024;-58
2023/01/03 02:52:55;;;;;;;6.22;2.08;;;;;;;;;;5093503;28;20020;-57
2023/01/03 02:55:23;;;;;;;5.22;2.20;;;;;;;;;;5093264;28;20119;-57
2023/01/03 02:57:55;;;;;;;4.75;1.88;;;;;;;;;;5094723;28;20089;-59
2023/01/03 03:00:23;;;;;;;9.32;2.00;;;;;;;;;;5093270;28;20553;-60
2023/01/03 03:02:50;;;;;;;6.38;1.70;;;;;;;;;;5094806;28;20031;-58
2023/01/03 03:05:24;;;;;;;7.85;1.70;;;;;;;;;;5092910;28;20489;-58
2023/01/03 03:07:50;;;;;;;4.93;2.08;;;;;;;;;;5093365;28;20365;-58
2023/01/03 03:13:13;;;;;;;5.60;1.58;;;;;;;;;;5094989;28;20101;-58
2023/01/03 03:15:49;;;;;;;9.82;2.13;;;;;;;;;;5094785;28;20028;-58
2023/01/03 03:18:37;;;;;;;5.85;1.65;;;;;;;;;;5094774;28;20069;-59
2023/01/03 03:26:34;;;;;;;4.53;1.88;;;;;;;;;;5094221;28;20503;-57
2023/01/03 03:29:03;;;;;;;5.55;1.70;;;;;;;;;;5094480;28;20020;-57
2023/01/03 03:31:38;;;;;;;4.20;1.80;;;;;;;;;;5092800;28;20392;-57
2023/01/03 03:34:16;;;;;;;2.38;1.58;;;;;;;;;;5094037;28;20043;-58
2023/01/03 03:36:49;;;;;;;2.90;1.40;;;;;;;;;;5093929;28;20068;-58
2023/01/03 03:45:14;;;;;;;7.82;1.77;;;;;;;;;;5093448;28;20031;-59
2023/01/03 03:47:46;;;;;;;2.42;1.13;;;;;;;;;;5094310;28;20020;-59
2023/01/03 03:50:29;;;;;;;5.68;2.05;;;;;;;;;;5092348;28;20077;-59
2023/01/03 03:53:00;;;;;;;6.18;1.70;;;;;;;;;;5092280;28;20052;-60
2023/01/03 03:55:35;;;;;;;4.05;1.60;;;;;;;;;;5092109;28;20031;-61
2023/01/03 03:58:04;;;;;;;4.45;1.27;;;;;;;;;;5093355;28;20044;-59
2023/01/03 04:00:31;;;;;;;6.38;1.55;;;;;;;;;;5093814;28;20020;-58
2023/01/03 04:02:58;;;;;;;4.65;1.80;;;;;;;;;;5093518;28;20012;-59
2023/01/03 04:05:24;;;;;;;5.60;1.33;;;;;;;;;;5093281;28;20044;-58
2023/01/03 04:07:50;;;;;;;2.67;1.48;;;;;;;;;;5092116;28;20032;-58
2023/01/03 04:10:19;;;;;;;3.45;1.52;;;;;;;;;;5093298;28;20012;-58
2023/01/03 04:12:45;;;;;;;5.20;2.08;;;;;;;;;;5093749;28;20107;-58
2023/01/03 04:15:12;;;;;;;3.63;1.52;;;;;;;;;;5093108;28;20035;-58
2023/01/03 04:17:37;;;;;;;4.07;1.48;;;;;;;;;;5092001;28;20111;-58
2023/01/03 04:20:03;;;;;;;2.58;1.70;;;;;;;;;;5092120;28;20102;-59
2023/01/03 04:22:28;;;;;;;8.43;1.85;;;;;;;;;;5091954;28;20479;-58
2023/01/03 04:24:53;;;;;;;3.38;1.20;;;;;;;;;;5092818;28;20019;-59
2023/01/03 04:27:19;;;;;;;7.30;2.13;;;;;;;;;;5093054;28;20362;-59
2023/01/03 04:29:44;;;;;;;5.45;1.58;;;;;;;;;;5091816;28;20039;-58
2023/01/03 04:32:10;;;;;;;6.05;1.48;;;;;;;;;;5093156;28;20080;-58
2023/01/03 04:34:35;;;;;;;4.53;1.65;;;;;;;;;;5092992;28;20461;-58
2023/01/03 04:37:01;;;;;;;5.35;2.03;;;;;;;;;;5092485;28;20050;-59
2023/01/03 04:39:26;;;;;;;4.75;1.80;;;;;;;;;;5091364;28;20061;-59
2023/01/03 04:41:52;;;;;;;4.00;2.00;;;;;;;;;;5092813;28;20027;-59
2023/01/03 04:44:17;;;;;;;8.82;1.80;;;;;;;;;;5093093;28;20468;-58
2023/01/03 04:46:43;;;;;;;7.80;2.00;;;;;;;;;;5091509;28;20020;-59
2023/01/03 04:49:09;;;;;;;2.90;1.83;;;;;;;;;;5091528;28;20062;-59
2023/01/03 04:51:34;;;;;;;6.43;2.22;;;;;;;;;;5091925;28;20021;-59
2023/01/03 04:54:01;;;;;;;4.15;1.98;;;;;;;;;;5091435;28;20531;-58
2023/01/03 04:56:28;;;;;;;4.85;1.60;;;;;;;;;;5092499;28;20169;-58
2023/01/03 04:58:53;;;;;;;4.40;1.63;;;;;;;;;;5091334;28;20476;-59
2023/01/03 05:01:19;;;;;;;5.13;1.63;;;;;;;;;;5092535;28;20030;-58
2023/01/03 05:03:44;;;;;;;3.78;2.15;;;;;;;;;;5092443;28;20024;-58
2023/01/03 05:06:10;;;;;;;4.95;1.95;;;;;;;;;;5090612;28;20047;-59
2023/01/03 05:08:37;;;;;;;4.05;2.08;;;;;;;;;;5090710;28;20016;-59
2023/01/03 05:11:03;;;;;;;6.47;3.05;;;;;;;;;;5091011;28;20069;-59
2023/01/03 05:13:28;;;;;;;8.32;1.63;;;;;;;;;;5092551;28;20461;-59
2023/01/03 05:15:54;;;;;;;4.47;1.67;;;;;;;;;;5092024;28;20027;-59
2023/01/03 05:18:19;;;;;;;11.15;1.95;;;;;;;;;;5090898;28;20814;-58
2023/01/03 05:26:14;;;;;;;4.45;1.58;;;;;;;;;;5099151;28;20030;-59
2023/01/03 05:28:40;;;;;;;4.32;1.92;;;;;;;;;;5097762;28;20070;-58
2023/01/03 05:31:06;;;;;;;4.25;1.33;;;;;;;;;;5098801;28;20070;-59
2023/01/03 05:33:31;;;;;;;7.82;1.70;;;;;;;;;;5098728;28;20380;-58
2023/01/03 05:35:57;;;;;;;3.17;1.60;;;;;;;;;;5099060;28;20026;-57
2023/01/03 05:38:22;;;;;;;4.93;1.50;;;;;;;;;;5098905;28;20115;-58
2023/01/03 05:40:48;;;;;;;3.75;1.30;;;;;;;;;;5097694;28;20017;-58
2023/01/03 05:43:13;;;;;;;6.15;1.50;;;;;;;;;;5098785;28;20499;-58
2023/01/03 05:45:39;;;;;;;4.90;1.48;;;;;;;;;;5099145;28;20028;-59
2023/01/03 05:48:05;;;;;;;5.03;1.77;;;;;;;;;;5098663;28;20019;-58
2023/01/03 05:50:31;;;;;;;2.83;0.90;;;;;;;;;;5098614;28;20158;-57
2023/01/03 05:52:56;;;;;;;4.47;1.48;;;;;;;;;;5098691;28;20444;-62
2023/01/03 05:55:22;;;;;;;3.60;1.00;;;;;;;;;;5098979;28;20032;-59
2023/01/03 05:57:47;;;;;;;5.47;1.42;;;;;;;;;;5097476;28;20422;-59
2023/01/03 06:00:13;;;;;;;5.47;2.72;;;;;;;;;;5097205;28;20468;-58
2023/01/03 06:02:38;;;;;;;4.00;1.50;;;;;;;;;;5097274;28;20023;-58
2023/01/03 06:05:04;;;;;;;4.88;1.25;;;;;;;;;;5098325;28;20033;-58
2023/01/03 06:07:31;;;;;;;4.50;1.33;;;;;;;;;;5099441;28;20016;-58
2023/01/03 06:09:57;;;;;;;3.47;1.08;;;;;;;;;;5099130;28;20032;-58
2023/01/03 06:12:27;;;;;;;6.25;1.33;;;;;;;;;;5100090;28;20055;-57
2023/01/03 06:14:52;;;;;;;4.00;1.20;;;;;;;;;;5099117;28;20020;-63
2023/01/03 06:20:02;;;;;;;5.47;1.60;;;;;;;;;;5098975;28;20069;-61
2023/01/03 06:22:27;;;;;;;3.95;1.40;;;;;;;;;;5098393;28;20024;-58
2023/01/03 06:24:52;;;;;;;3.40;1.20;;;;;;;;;;5098370;28;20016;-59
2023/01/03 06:27:18;;;;;;;4.20;1.40;;;;;;;;;;5098032;28;20476;-58
2023/01/03 06:29:44;;;;;;;4.70;1.67;;;;;;;;;;5097170;28;20114;-58
2023/01/03 06:32:10;;;;;;;3.08;1.33;;;;;;;;;;5098316;28;20019;-58
2023/01/03 06:34:35;;;;;;;6.13;1.58;;;;;;;;;;5092477;28;20108;-57
2023/01/03 06:37:01;;;;;;;3.67;1.90;;;;;;;;;;5094865;28;20446;-59
2023/01/03 06:39:26;;;;;;;5.32;1.85;;;;;;;;;;5094597;28;20452;-58
2023/01/03 06:41:52;;;;;;;1.95;1.40;;;;;;;;;;5095122;28;20016;-57
2023/01/03 06:44:17;;;;;;;3.58;1.08;;;;;;;;;;5094562;28;20061;-58
2023/01/03 06:54:57;;;;;;;3.15;1.20;;;;;;;;;;5094513;28;20035;-63
2023/01/03 06:57:22;;;;;;;7.00;1.38;;;;;;;;;;5094780;28;20459;-60
2023/01/03 06:59:48;;;;;;;9.75;2.20;;;;;;;;;;5095601;28;20020;-59
2023/01/03 07:02:14;;;;;;;4.97;1.27;;;;;;;;;;5096097;28;20020;-57
2023/01/03 07:04:40;;;;;;;4.65;1.15;;;;;;;;;;5096459;28;20127;-57
2023/01/03 07:07:05;;;;;;;5.68;1.58;;;;;;;;;;5094922;28;20119;-59
2023/01/03 07:09:30;;;;;;;4.90;1.02;;;;;;;;;;5093279;28;20499;-60
2023/01/03 07:11:56;;;;;;;3.45;1.00;;;;;;;;;;5094859;28;20024;-57
2023/01/03 07:14:21;;;;;;;6.13;1.20;;;;;;;;;;5092949;28;20016;-58
2023/01/03 07:16:47;;;;;;;2.38;0.90;;;;;;;;;;5094512;28;20074;-58
2023/01/03 07:19:14;;;;;;;4.05;1.10;;;;;;;;;;5093136;28;20465;-58
2023/01/03 07:21:40;;;;;;;3.28;1.05;;;;;;;;;;5094074;28;20008;-58
2023/01/03 07:24:06;;;;;;;6.80;1.25;;;;;;;;;;5093531;28;20016;-58
2023/01/03 07:26:33;;;;;;;4.22;1.10;;;;;;;;;;5094212;28;20073;-58
2023/01/03 07:28:59;;;;;;;6.53;1.15;;;;;;;;;;5092467;28;20060;-59
2023/01/03 07:31:24;;;;;;;6.43;1.23;;;;;;;;;;5092255;28;20016;-59
2023/01/03 07:33:51;;;;;;;7.90;1.10;;;;;;;;;;5093659;28;20043;-58
2023/01/03 07:36:17;;;;;;;3.65;0.88;;;;;;;;;;5092255;28;20028;-60
2023/01/03 07:38:43;;;;;;;4.80;1.30;;;;;;;;;;5093745;28;20020;-59
2023/01/03 07:41:10;;;;;;;4.05;0.90;;;;;;;;;;5093910;28;20044;-60
2023/01/03 07:43:36;;;;;;;6.60;1.05;;;;;;;;;;5092044;28;20043;-59
2023/01/03 07:46:06;;;;;;;10.25;1.05;;;;;;;;;;5092058;28;20032;-59
2023/01/03 07:48:31;;;;;;;6.10;1.70;;;;;;;;;;5093814;28;20372;-60
2023/01/03 07:50:57;;;;;;;3.80;1.33;;;;;;;;;;5091908;28;20024;-60
2023/01/03 07:53:22;;;;;;;3.95;0.70;;;;;;;;;;5092029;28;20016;-59
2023/01/03 07:55:48;;;;;;;2.88;1.02;;;;;;;;;;5093246;28;20498;-67
2023/01/03 07:58:13;;;;;;;3.05;0.55;;;;;;;;;;5093624;28;20024;-59
2023/01/03 08:00:40;;;;;;;2.20;0.45;;;;;;;;;;5093662;28;20358;-60
2023/01/03 08:03:05;;;;;;;2.78;0.50;;;;;;;;;;5093198;28;20055;-59
2023/01/03 08:05:31;;;;;;;4.07;0.50;;;;;;;;;;5093318;28;20071;-60
2023/01/03 08:07:57;;;;;;;3.75;0.20;;;;;;;;;;5093637;28;20020;-61
2023/01/03 08:13:17;;;;;;;1.95;0.30;;;;;;;;;;5092815;28;20065;-60
2023/01/03 08:15:50;;;;;;;5.03;0.40;;;;;;;;;;5093444;28;20032;-60
2023/01/03 08:18:16;;;;;;;2.30;0.50;;;;;;;;;;5093147;28;20016;-61
2023/01/03 08:20:41;;;;;;;4.15;0.50;;;;;;;;;;5091696;28;20027;-59
2023/01/03 08:23:07;;;;;;;4.88;1.00;;;;;;;;;;5091901;28;20361;-59
2023/01/03 08:25:33;;;;;;;3.40;1.15;;;;;;;;;;5093234;28;20019;-60
2023/01/03 08:27:59;;;;;;;4.78;0.47;;;;;;;;;;5093093;28;20077;-62
2023/01/03 08:30:24;;;;;;;2.40;0.32;;;;;;;;;;5092236;28;20066;-61
2023/01/03 08:32:51;;;;;;;4.80;0.50;;;;;;;;;;5091853;28;20020;-64
2023/01/03 08:35:16;;;;;;;0.85;0.35;;;;;;;;;;5094081;28;20404;-65
2023/01/03 08:37:43;;;;;;;2.92;0.35;;;;;;;;;;5094827;28;20020;-63
2023/01/03 08:40:09;;;;;;;2.08;0.40;;;;;;;;;;5093117;28;20016;-64
2023/01/03 08:42:35;;;;;;;4.15;0.35;;;;;;;;;;5093064;28;20428;-63
2023/01/03 08:45:03;;;;;;;2.80;0.38;;;;;;;;;;5092738;28;20023;-63
2023/01/03 08:47:29;;;;;;;3.80;1.55;;;;;;;;;;5093121;28;20050;-63
2023/01/03 08:49:55;;;;;;;2.60;0.75;;;;;;;;;;5093053;28;20465;-64
2023/01/03 08:52:21;;;;;;;2.42;0.70;;;;;;;;;;5093144;28;20027;-64
2023/01/03 08:54:46;;;;;;;2.78;0.70;;;;;;;;;;5092054;28;20434;-64
2023/01/03 08:57:12;;;;;;;3.90;0.85;;;;;;;;;;5091566;28;20024;-65
2023/01/03 08:59:38;;;;;;;2.42;0.80;;;;;;;;;;5092516;28;20034;-65
2023/01/03 09:02:06;;;;;;;1.85;0.60;;;;;;;;;;5091388;28;20052;-63
2023/01/03 09:04:31;;;;;;;3.08;0.90;;;;;;;;;;5092053;28;20139;-68
2023/01/03 09:06:57;;;;;;;5.38;0.88;;;;;;;;;;5091323;28;20111;-64
2023/01/03 09:09:22;;;;;;;1.17;0.60;;;;;;;;;;5092098;28;20468;-65
2023/01/03 09:11:48;;;;;;;8.10;0.95;;;;;;;;;;5092568;28;20453;-65
2023/01/03 09:14:14;;;;;;;1.45;0.60;;;;;;;;;;5091003;28;20024;-64
2023/01/03 09:16:39;;;;;;;3.20;1.30;;;;;;;;;;5092544;28;20465;-65
2023/01/03 09:19:04;;;;;;;1.55;0.60;;;;;;;;;;5093134;28;20027;-63
2023/01/03 09:21:30;;;;;;;3.13;0.80;;;;;;;;;;5091582;28;20412;-65
2023/01/03 09:23:57;;;;;;;1.77;0.52;;;;;;;;;;5091099;28;20027;-65
2023/01/03 09:26:23;;;;;;;3.30;0.85;;;;;;;;;;5092460;28;20376;-68
2023/01/03 09:28:49;;;;;;;1.73;0.70;;;;;;;;;;5092502;28;20016;-65
2023/01/03 09:31:14;;;;;;;5.10;1.20;;;;;;;;;;5091846;28;20017;-66
2023/01/03 09:33:39;;;;;;;3.63;0.80;;;;;;;;;;5091246;28;20016;-63
2023/01/03 09:36:05;;;;;;;8.35;1.67;;;;;;;;;;5092626;28;20044;-64
2023/01/03 09:38:31;;;;;;;3.42;1.00;;;;;;;;;;5091068;28;20024;-63
2023/01/03 09:41:07;;;;;;;4.07;0.85;;;;;;;;;;5092636;28;20031;-70
2023/01/03 09:43:40;;;;;;;2.65;0.52;;;;;;;;;;5092250;28;20436;-63
2023/01/03 09:46:10;;;;;;;3.60;0.68;;;;;;;;;;5090974;28;20023;-63
2023/01/03 09:48:38;;;;;;;3.45;0.47;;;;;;;;;;5091157;28;20024;-63
2023/01/03 10:03:42;;;;;;;0.85;0.20;;;;;;;;;;5094433;28;20017;-64
2023/01/03 10:05:07;;;;;;;3.97;0.63;;;;;;;;;;5091529;28;20051;-67
2023/01/03 10:07:33;;;;;;;4.27;1.03;;;;;;;;;;5092305;28;20043;-66
2023/01/03 10:10:07;;;;;;;2.33;0.38;;;;;;;;;;5094483;28;20484;-65
2023/01/03 10:12:41;;;;;;;3.17;0.43;;;;;;;;;;5096098;28;20384;-65
2023/01/03 10:15:14;;;;;;;3.45;0.98;;;;;;;;;;5095357;28;20032;-65
2023/01/03 10:17:43;;;;;;;1.47;0.20;;;;;;;;;;5096069;28;20031;-63
2023/01/03 10:20:09;;;;;;;3.60;0.35;;;;;;;;;;5094203;28;20024;-64
2023/01/03 10:22:36;;;;;;;6.10;0.80;;;;;;;;;;5094099;28;20020;-66
2023/01/03 10:25:20;;;;;;;3.20;0.93;;;;;;;;;;5093972;28;20024;-66
2023/01/03 10:27:53;;;;;;;1.43;0.47;;;;;;;;;;5094207;28;20105;-65
2023/01/03 10:30:38;;;;;;;3.15;0.93;;;;;;;;;;5095503;28;20016;-64
2023/01/03 10:33:03;;;;;;;3.80;0.70;;;;;;;;;;5093580;28;20017;-63
2023/01/03 10:35:33;;;;;;;3.08;0.40;;;;;;;;;;5094641;28;20493;-66
2023/01/03 10:37:59;;;;;;;2.38;0.43;;;;;;;;;;5093754;28;20031;-66
2023/01/03 10:40:38;;;;;;;2.13;0.70;;;;;;;;;;5094697;28;20020;-65
2023/01/03 10:43:08;;;;;;;3.33;1.38;;;;;;;;;;5093100;28;20114;-66
2023/01/03 10:45:35;;;;;;;1.85;0.32;;;;;;;;;;5093249;28;20024;-66
2023/01/03 10:48:01;;;;;;;1.75;0.40;;;;;;;;;;5094823;28;20146;-67
2023/01/03 10:50:27;;;;;;;1.63;0.63;;;;;;;;;;5093147;28;20111;-65
2023/01/03 10:52:57;;;;;;;0.63;0.30;;;;;;;;;;5094606;28;20028;-66
2023/01/03 10:55:25;;;;;;;3.40;0.60;;;;;;;;;;5093231;28;20060;-66
2023/01/03 10:57:51;;;;;;;3.35;0.50;;;;;;;;;;5093636;28;20388;-66
2023/01/03 11:00:20;;;;;;;2.35;0.38;;;;;;;;;;5093918;28;20016;-66
2023/01/03 11:02:46;;;;;;;3.00;0.40;;;;;;;;;;5094103;28;20495;-66
2023/01/03 11:05:16;;;;;;;2.72;0.32;;;;;;;;;;5092460;28;20052;-66
2023/01/03 11:07:42;;;;;;;6.55;0.60;;;;;;;;;;5094170;28;20149;-65
2023/01/03 11:10:14;;;;;;;1.17;0.30;;;;;;;;;;5094220;28;20100;-66
2023/01/03 11:12:42;;;;;;;2.35;0.40;;;;;;;;;;5092682;28;20031;-66
2023/01/03 11:15:14;;;;;;;4.75;0.77;;;;;;;;;;5093160;28;20022;-67
2023/01/03 11:17:53;;;;;;;1.05;0.38;;;;;;;;;;5093743;28;20016;-66
2023/01/03 11:20:19;;;;;;;1.38;0.30;;;;;;;;;;5093224;28;20020;-67
2023/01/03 11:23:01;;;;;;;1.50;0.50;;;;;;;;;;5093996;28;20491;-66
2023/01/03 11:25:36;;;;;;;6.63;0.68;;;;;;;;;;5094181;28;20024;-68
2023/01/03 11:28:09;;;;;;;2.80;0.40;;;;;;;;;;5094242;28;20020;-67
2023/01/03 11:30:49;;;;;;;1.10;0.32;;;;;;;;;;5094260;28;20031;-67
2023/01/03 11:33:37;;;;;;;4.63;0.82;;;;;;;;;;5092593;28;20111;-67
2023/01/03 11:36:06;;;;;;;3.90;0.50;;;;;;;;;;5095957;28;20050;-66
2023/01/03 11:38:34;;;;;;;3.08;0.60;;;;;;;;;;5096875;28;20038;-68
2023/01/03 11:41:06;;;;;;;2.83;0.60;;;;;;;;;;5096159;28;20012;-67
2023/01/03 11:43:50;;;;;;;1.17;0.30;;;;;;;;;;5093409;28;20032;-70
2023/01/03 11:46:15;;;;;;;4.25;0.50;;;;;;;;;;5093955;28;20016;-67
2023/01/03 11:48:45;;;;;;;2.60;0.53;;;;;;;;;;5093589;28;20024;-68
2023/01/03 11:51:15;;;;;;;2.83;0.30;;;;;;;;;;5093654;28;20042;-66
2023/01/03 11:53:46;;;;;;;2.73;0.63;;;;;;;;;;5092053;28;20024;-67
2023/01/03 11:56:34;;;;;;;34.83;9.10;;;;;;;;;;5093765;28;20028;-69
2023/01/03 11:59:06;;;;;;;2.17;0.80;;;;;;;;;;5092046;28;20020;-68
2023/01/03 12:01:41;;;;;;;4.57;1.27;;;;;;;;;;5092647;28;20020;-66
2023/01/03 12:04:12;;;;;;;1.60;0.30;;;;;;;;;;5093650;28;20016;-65
2023/01/03 12:06:38;;;;;;;1.33;0.60;;;;;;;;;;5093755;28;20421;-67
2023/01/03 12:09:29;;;;;;;3.17;0.45;;;;;;;;;;5091536;28;20016;-66
2023/01/03 12:12:01;;;;;;;1.45;0.30;;;;;;;;;;5090230;28;20024;-67
2023/01/03 12:14:33;;;;;;;2.60;0.73;;;;;;;;;;5092075;28;20028;-67
2023/01/03 12:17:06;;;;;;;2.47;0.40;;;;;;;;;;5092096;28;20036;-67
2023/01/03 12:19:42;;;;;;;0.83;0.40;;;;;;;;;;5093542;28;20028;-67
2023/01/03 12:22:11;;;;;;;0.93;0.30;;;;;;;;;;5092141;28;20050;-66
2023/01/03 12:24:45;;;;;;;1.67;0.50;;;;;;;;;;5093263;28;20024;-66
2023/01/03 12:27:32;;;;;;;1.83;0.27;;;;;;;;;;5092714;28;20091;-67
2023/01/03 12:29:58;;;;;;;2.57;0.43;;;;;;;;;;5091110;28;20058;-69
2023/01/03 12:32:30;;;;;;;2.17;0.30;;;;;;;;;;5090587;28;20024;-67
2023/01/03 12:35:18;;;;;;;1.03;0.50;;;;;;;;;;5093956;28;20020;-65
2023/01/03 12:37:47;;;;;;;5.07;0.80;;;;;;;;;;5081825;28;20097;-67
2023/01/03 12:40:20;;;;;;;2.60;0.40;;;;;;;;;;5091890;28;20016;-65
2023/01/03 12:43:12;;;;;;;1.40;0.10;;;;;;;;;;5093729;28;20090;-70
2023/01/03 12:46:01;;;;;;;5.63;0.63;;;;;;;;;;5061983;28;20039;-65
2023/01/03 12:48:29;;;;;;;7.40;3.30;;;;;;;;;;5092574;28;20016;-64
2023/01/03 12:50:55;;;;;;;2.27;0.60;;;;;;;;;;5091523;28;20081;-66
2023/01/03 12:53:32;;;;;;;2.70;0.67;;;;;;;;;;5091339;28;20028;-66
2023/01/03 12:56:05;;;;;;;2.47;0.50;;;;;;;;;;5092759;28;20047;-66
2023/01/03 12:58:40;;;;;;;3.10;0.37;;;;;;;;;;5091679;28;20055;-66
2023/01/03 13:01:06;;;;;;;;;;;;;;;;;;5093140;28;20094;-65
2023/01/03 13:03:51;;;;;;;2.27;0.37;;;;;;;;;;5092615;28;20363;-65
2023/01/03 13:06:26;;;;;;;3.70;0.50;;;;;;;;;;5091347;28;20102;-65
2023/01/03 13:09:00;;;;;;;4.30;0.80;;;;;;;;;;5092826;28;20032;-67
2023/01/03 13:11:28;;;;;;;3.00;0.67;;;;;;;;;;5091531;28;20020;-65
2023/01/03 13:13:58;;;;;;;1.37;0.43;;;;;;;;;;5092473;28;20296;-65
2023/01/03 13:16:33;;;;;;;3.40;0.43;;;;;;;;;;5092152;28;20032;-66
2023/01/03 13:19:25;;;;;;;1.33;0.30;;;;;;;;;;5092478;28;20438;-66
2023/01/03 13:21:53;;;;;;;2.33;0.70;;;;;;;;;;5092566;28;20031;-66
2023/01/03 13:24:37;;;;;;;1.70;0.87;;;;;;;;;;5091118;28;20098;-66
2023/01/03 13:27:23;;;;;;;1.80;0.67;;;;;;;;;;5092555;28;20402;-65
2023/01/03 13:29:59;;;;;;;2.97;0.60;;;;;;;;;;5091835;28;20073;-66
2023/01/03 13:32:26;;;;;;;3.30;0.63;;;;;;;;;;5093145;28;20012;-66
2023/01/03 13:34:57;;;;;;;1.27;0.47;;;;;;;;;;5091141;28;20030;-69
2023/01/03 13:37:27;;;;;;;1.17;0.20;;;;;;;;;;5092284;28;20085;-66
2023/01/03 13:40:16;;;;;;;2.90;0.27;;;;;;;;;;5092469;28;20028;-66
2023/01/03 13:42:42;;;;;;;3.47;1.10;;;;;;;;;;5093176;28;20036;-66
2023/01/03 13:45:18;;;;;;;4.43;1.13;;;;;;;;;;5094781;28;20402;-68
2023/01/03 13:47:46;;;;;;;2.77;0.60;;;;;;;;;;5096577;28;20486;-70
2023/01/03 13:50:19;;;;;;;2.87;1.10;;;;;;;;;;5095551;28;20169;-67
2023/01/03 13:52:58;;;;;;;6.10;1.97;;;;;;;;;;5095198;28;20068;-67
2023/01/03 13:55:33;;;;;;;2.57;0.43;;;;;;;;;;5096222;28;20085;-66
2023/01/03 13:57:59;;;;;;;4.53;0.63;;;;;;;;;;5096407;28;20027;-68
2023/01/03 14:00:24;;;;;;;2.83;0.37;;;;;;;;;;5094988;28;20118;-66
2023/01/03 14:03:09;;;;;;;3.73;0.40;;;;;;;;;;5094547;28;20104;-66
2023/01/03 14:05:53;;;;;;;1.40;0.40;;;;;;;;;;5096022;28;20070;-65
2023/01/03 14:08:25;;;;;;;3.43;0.40;;;;;;;;;;5094431;28;20020;-66
2023/01/03 14:10:53;;;;;;;0.90;0.40;;;;;;;;;;5096090;28;20051;-65
2023/01/03 14:13:40;;;;;;;1.20;0.30;;;;;;;;;;5094429;28;20047;-66
2023/01/03 14:16:05;;;;;;;3.17;0.30;;;;;;;;;;5095259;28;20032;-67
2023/01/03 14:18:37;;;;;;;2.03;0.83;;;;;;;;;;5095779;28;20049;-66
2023/01/03 14:21:03;;;;;;;3.80;1.23;;;;;;;;;;5094573;28;20059;-64
2023/01/03 14:23:29;;;;;;;1.50;0.47;;;;;;;;;;5096053;28;20024;-67
2023/01/03 14:26:03;;;;;;;2.57;0.60;;;;;;;;;;5095689;28;20020;-65
2023/01/03 14:28:30;;;;;;;2.73;0.37;;;;;;;;;;5095527;28;20434;-65
2023/01/03 14:30:56;;;;;;;0.90;0.37;;;;;;;;;;5095429;28;20023;-69
2023/01/03 14:33:24;;;;;;;1.27;0.40;;;;;;;;;;5095225;28;20016;-64
2023/01/03 14:36:04;;;;;;;3.03;0.80;;;;;;;;;;5095249;28;20107;-63
2023/01/03 14:38:31;;;;;;;10.03;1.00;;;;;;;;;;5096056;28;20028;-64
2023/01/03 14:40:57;;;;;;;3.93;0.40;;;;;;;;;;5095310;28;20016;-68
2023/01/03 14:43:26;;;;;;;3.03;0.60;;;;;;;;;;5095343;28;20095;-64
2023/01/03 14:45:53;;;;;;;1.27;0.47;;;;;;;;;;5095327;28;20081;-65
2023/01/03 14:48:18;;;;;;;1.40;0.30;;;;;;;;;;5095904;28;20024;-64
2023/01/03 14:50:47;;;;;;;0.50;0.30;;;;;;;;;;5095574;28;20012;-65
2023/01/03 14:53:12;;;;;;;0.87;0.40;;;;;;;;;;5095107;28;20365;-64
2023/01/03 14:55:38;;;;;;;3.90;0.60;;;;;;;;;;5096381;28;20031;-67
2023/01/03 14:58:20;;;;;;;1.70;0.50;;;;;;;;;;5095170;28;20024;-66
2023/01/03 15:00:46;;;;;;;3.47;1.10;;;;;;;;;;5094036;28;20429;-65
2023/01/03 15:03:12;;;;;;;2.93;0.50;;;;;;;;;;5093057;28;20380;-65
2023/01/03 15:05:42;;;;;;;2.47;0.40;;;;;;;;;;5093872;28;20055;-63
2023/01/03 15:08:07;;;;;;;5.03;0.77;;;;;;;;;;5093976;28;20027;-65
2023/01/03 15:10:40;;;;;;;6.23;0.57;;;;;;;;;;5093430;28;20376;-65
2023/01/03 15:13:14;;;;;;;1.37;0.50;;;;;;;;;;5094111;28;20016;-65
2023/01/03 15:15:40;;;;;;;3.77;0.50;;;;;;;;;;5094199;28;20048;-66
2023/01/03 15:18:06;;;;;;;3.87;0.93;;;;;;;;;;5096373;28;20487;-67
2023/01/03 15:20:44;;;;;;;0.83;0.40;;;;;;;;;;5093404;28;20073;-64
2023/01/03 15:23:27;;;;;;;3.27;0.87;;;;;;;;;;5094502;28;20023;-65
2023/01/03 15:25:53;;;;;;;3.73;0.60;;;;;;;;;;5093397;28;20028;-66
2023/01/03 15:28:26;;;;;;;1.97;0.60;;;;;;;;;;5094468;28;20410;-64
2023/01/03 15:30:53;;;;;;;2.03;0.60;;;;;;;;;;5093407;28;20059;-64
2023/01/03 15:33:33;;;;;;;3.20;0.50;;;;;;;;;;5094586;28;20381;-64
2023/01/03 15:36:07;;;;;;;1.73;0.60;;;;;;;;;;5095006;28;20024;-64
2023/01/03 15:38:38;;;;;;;3.27;0.70;;;;;;;;;;5094931;28;20114;-64
2023/01/03 15:44:13;;;;;;;3.33;0.80;;;;;;;;;;5094621;28;20031;-63
2023/01/03 15:46:44;;;;;;;1.30;0.43;;;;;;;;;;5094417;28;20022;-64